Time;durP1;ratioP1;P1;durP2;ratioP2;P2;SDS_P1;SDS_P2;PMS_P1;PMS_P2;Temp;Humidity;BMP_temperature;BMP_pressure;BME280_temperature;BME280_humidity;BME280_pressure;Samples;Min_cycle;Max_cycle;Signal;HPM_P1;HPM_P2
2023/06/13 00:02:20;;;;;;;0.70;0.70;;;;;;;18.03;100.00;99786.28;5070107;28;20205;-74
2023/06/13 00:04:48;;;;;;;0.65;0.65;;;;;;;18.09;100.00;99766.03;5070395;28;20222;-74
2023/06/13 00:07:15;;;;;;;0.65;0.65;;;;;;;17.92;100.00;99777.75;5070469;28;20245;-74
2023/06/13 00:09:42;;;;;;;0.90;0.90;;;;;;;17.97;100.00;99771.56;5070714;28;20221;-74
2023/06/13 00:12:09;;;;;;;0.60;0.60;;;;;;;18.15;100.00;99786.06;5035211;28;20198;-74
2023/06/13 00:14:38;;;;;;;0.70;0.70;;;;;;;18.14;100.00;99784.31;5070450;28;20264;-74
2023/06/13 00:17:05;;;;;;;0.70;0.70;;;;;;;17.99;100.00;99795.97;5070258;28;20259;-74
2023/06/13 00:19:31;;;;;;;0.70;0.70;;;;;;;18.08;100.00;99787.94;5070413;28;20199;-74
2023/06/13 00:21:59;;;;;;;0.70;0.70;;;;;;;18.18;100.00;99788.63;5070374;28;20233;-74
2023/06/13 00:24:29;;;;;;;0.70;0.70;;;;;;;18.18;100.00;99791.25;5070326;28;20199;-73
2023/06/13 00:26:56;;;;;;;0.70;0.70;;;;;;;18.02;100.00;99792.41;5069947;28;20205;-74
2023/06/13 00:29:23;;;;;;;0.70;0.70;;;;;;;17.85;100.00;99792.75;5034460;28;20252;-73
2023/06/13 00:31:51;;;;;;;0.70;0.70;;;;;;;18.08;100.00;99795.81;5070374;28;20629;-74
2023/06/13 00:34:18;;;;;;;0.70;0.70;;;;;;;17.84;100.00;99801.50;5070340;28;20207;-73
2023/06/13 00:36:45;;;;;;;0.60;0.60;;;;;;;17.98;100.00;99791.63;5069937;28;20218;-73
2023/06/13 00:39:12;;;;;;;0.60;0.60;;;;;;;17.97;100.00;99784.66;5070179;28;20623;-74
2023/06/13 00:41:39;;;;;;;0.70;0.70;;;;;;;17.83;100.00;99789.31;5070423;28;20210;-74
2023/06/13 00:44:07;;;;;;;0.60;0.60;;;;;;;17.82;100.00;99769.22;5071345;28;20206;-74
2023/06/13 00:46:35;;;;;;;0.60;0.60;;;;;;;17.63;100.00;99765.22;5034697;28;20234;-74
2023/06/13 00:49:05;;;;;;;0.60;0.60;;;;;;;17.66;100.00;99766.00;5069103;28;20202;-74
2023/06/13 00:51:35;;;;;;;0.70;0.70;;;;;;;17.81;100.00;99775.34;5070408;28;20195;-74
2023/06/13 00:54:03;;;;;;;0.77;0.77;;;;;;;17.77;100.00;99778.91;5070306;28;20199;-74
2023/06/13 00:56:31;;;;;;;1.33;1.33;;;;;;;17.64;100.00;99770.44;5058503;28;20650;-74
2023/06/13 00:58:59;;;;;;;0.60;0.60;;;;;;;17.59;100.00;99771.41;5032038;28;20196;-74
2023/06/13 01:01:27;;;;;;;0.80;0.80;;;;;;;17.68;100.00;99769.50;5022992;28;20290;-74
2023/06/13 01:03:55;;;;;;;0.60;0.60;;;;;;;17.58;100.00;99767.94;5072711;28;20283;-74
2023/06/13 01:06:25;;;;;;;0.60;0.60;;;;;;;17.60;100.00;99752.16;5074011;28;20676;-74
2023/06/13 01:08:52;;;;;;;0.80;0.80;;;;;;;17.43;100.00;99760.31;5073409;28;20286;-74
2023/06/13 01:11:28;;;;;;;0.80;0.80;;;;;;;17.50;100.00;99769.78;5074127;28;20207;-74
2023/06/13 01:14:01;;;;;;;0.70;0.70;;;;;;;17.45;100.00;99762.88;5074343;28;20197;-74
2023/06/13 01:16:33;;;;;;;0.70;0.70;;;;;;;17.50;100.00;99764.53;5073941;28;20205;-73
2023/06/13 01:19:04;;;;;;;0.70;0.70;;;;;;;17.52;100.00;99761.88;5067108;28;20252;-74
2023/06/13 01:21:37;;;;;;;0.75;0.75;;;;;;;17.47;100.00;99759.38;5073628;28;20194;-73
2023/06/13 01:24:07;;;;;;;0.70;0.70;;;;;;;17.44;100.00;99755.94;5073480;28;20571;-73
2023/06/13 01:26:51;;;;;;;0.60;0.60;;;;;;;17.54;100.00;99757.50;5039334;28;20199;-73
2023/06/13 01:29:20;;;;;;;0.70;0.70;;;;;;;17.31;100.00;99753.53;5073008;28;20208;-74
2023/06/13 01:31:51;;;;;;;0.70;0.70;;;;;;;17.12;100.00;99741.63;5073419;28;20259;-74
2023/06/13 01:34:18;;;;;;;0.60;0.60;;;;;;;17.13;100.00;99759.06;5073893;28;20206;-73
2023/06/13 01:36:45;;;;;;;0.70;0.70;;;;;;;17.17;100.00;99755.50;5073505;28;20209;-75
2023/06/13 01:39:12;;;;;;;0.70;0.70;;;;;;;17.06;100.00;99743.47;5073342;28;20692;-74
2023/06/13 01:41:39;;;;;;;0.70;0.70;;;;;;;17.11;100.00;99753.00;5073344;28;20206;-74
2023/06/13 01:44:08;;;;;;;1.27;1.05;;;;;;;17.17;100.00;99745.03;5073381;28;20207;-74
2023/06/13 01:46:46;;;;;;;0.60;0.60;;;;;;;17.12;100.00;99754.72;5054111;28;20195;-75
2023/06/13 01:49:22;;;;;;;0.60;0.60;;;;;;;17.01;100.00;99735.72;5072056;28;20214;-73
2023/06/13 01:51:58;;;;;;;0.65;0.65;;;;;;;17.22;100.00;99748.44;5073064;28;20205;-74
2023/06/13 01:54:27;;;;;;;0.80;0.80;;;;;;;17.30;100.00;99754.41;5072805;28;20202;-75
2023/06/13 01:56:57;;;;;;;0.70;0.70;;;;;;;17.28;100.00;99745.72;5072407;28;20681;-75
2023/06/13 01:59:26;;;;;;;0.70;0.70;;;;;;;17.09;100.00;99728.56;5072332;28;20203;-74
2023/06/13 02:01:55;;;;;;;0.65;0.65;;;;;;;17.08;100.00;99745.22;5073171;28;20225;-74
2023/06/13 02:04:21;;;;;;;0.90;0.90;;;;;;;16.79;100.00;99736.94;5072879;28;20300;-74
2023/06/13 02:06:49;;;;;;;0.70;0.70;;;;;;;16.75;100.00;99741.38;5072815;28;20187;-74
2023/06/13 02:09:16;;;;;;;0.80;0.80;;;;;;;16.87;100.00;99747.31;5072827;28;20210;-74
2023/06/13 02:11:43;;;;;;;0.77;0.77;;;;;;;16.83;100.00;99733.41;5072295;28;20205;-74
2023/06/13 02:14:09;;;;;;;0.70;0.70;;;;;;;17.05;100.00;99747.84;5072011;28;20194;-74
2023/06/13 02:16:39;;;;;;;0.70;0.70;;;;;;;17.02;100.00;99745.28;5067309;28;20207;-74
2023/06/13 02:19:07;;;;;;;0.60;0.60;;;;;;;16.78;100.00;99745.69;5064449;28;20627;-75
2023/06/13 02:21:34;;;;;;;0.70;0.70;;;;;;;16.85;100.00;99747.31;5072222;28;20749;-74
2023/06/13 02:24:01;;;;;;;0.70;0.70;;;;;;;16.77;100.00;99743.94;5072500;28;20195;-74
2023/06/13 02:26:29;;;;;;;0.80;0.80;;;;;;;16.71;100.00;99736.19;5072141;28;20214;-74
2023/06/13 02:28:57;;;;;;;0.70;0.70;;;;;;;17.00;100.00;99757.56;5070969;28;20672;-74
2023/06/13 02:31:24;;;;;;;0.70;0.70;;;;;;;16.93;100.00;99747.19;5071228;28;20227;-74
2023/06/13 02:33:52;;;;;;;0.65;0.65;;;;;;;17.04;100.00;99737.41;5072308;28;20733;-74
2023/06/13 02:36:19;;;;;;;0.70;0.70;;;;;;;16.67;100.00;99758.06;5072276;28;20214;-75
2023/06/13 02:38:46;;;;;;;0.60;0.60;;;;;;;16.72;100.00;99745.78;5071666;28;20222;-76
2023/06/13 02:41:13;;;;;;;0.70;0.70;;;;;;;16.84;100.00;99761.28;5072153;28;20256;-74
2023/06/13 02:43:39;;;;;;;0.60;0.60;;;;;;;16.88;100.00;99751.63;5053461;28;20327;-74
2023/06/13 02:46:06;;;;;;;0.70;0.70;;;;;;;16.84;100.00;99761.28;5071791;28;20203;-74
2023/06/13 02:48:33;;;;;;;0.90;0.90;;;;;;;16.67;100.00;99758.06;5071655;28;20282;-74
2023/06/13 02:51:02;;;;;;;0.70;0.70;;;;;;;16.89;100.00;99767.34;5070974;28;20256;-74
2023/06/13 02:53:28;;;;;;;0.68;0.68;;;;;;;17.08;100.00;99768.78;5068973;28;20239;-74
2023/06/13 02:55:55;;;;;;;0.75;0.75;;;;;;;17.08;100.00;99767.91;5071703;28;20260;-75
2023/06/13 02:58:22;;;;;;;0.80;0.80;;;;;;;16.90;100.00;99766.44;5071541;28;20223;-75
2023/06/13 03:00:49;;;;;;;0.70;0.70;;;;;;;16.94;100.00;99773.38;5067839;28;20206;-74
2023/06/13 03:03:18;;;;;;;0.70;0.70;;;;;;;16.93;100.00;99771.63;5069159;28;20194;-74
2023/06/13 03:05:47;;;;;;;0.68;0.68;;;;;;;16.83;100.00;99775.28;5071531;28;20812;-76
2023/06/13 03:08:18;;;;;;;0.60;0.60;;;;;;;16.82;100.00;99736.91;5071316;28;20207;-75
2023/06/13 03:10:45;;;;;;;0.70;0.70;;;;;;;16.85;100.00;99750.81;5020334;28;20199;-73
2023/06/13 03:13:12;;;;;;;0.70;0.70;;;;;;;17.35;100.00;99778.78;5022485;28;20195;-73
2023/06/13 03:15:39;;;;;;;0.60;0.60;;;;;;;17.35;100.00;99786.66;5070196;28;20689;-73
2023/06/13 03:18:06;;;;;;;0.70;0.70;;;;;;;17.65;100.00;99771.31;5071178;28;20234;-74
2023/06/13 03:20:33;;;;;;;0.70;0.70;;;;;;;17.66;100.00;99778.25;5071649;28;20198;-74
2023/06/13 03:22:59;;;;;;;0.80;0.80;;;;;;;18.10;100.00;99791.38;5071164;28;20240;-74
2023/06/13 03:25:28;;;;;;;0.70;0.70;;;;;;;18.43;100.00;99786.34;5071338;28;20198;-74
2023/06/13 03:27:54;;;;;;;0.50;0.50;;;;;;;18.22;100.00;99783.28;5071394;28;20199;-74
2023/06/13 03:30:21;;;;;;;0.70;0.70;;;;;;;18.21;100.00;99781.53;5069987;28;20230;-74
2023/06/13 03:32:48;;;;;;;0.80;0.80;;;;;;;17.88;100.00;99755.09;5071377;28;20206;-76
2023/06/13 03:35:15;;;;;;;0.63;0.63;;;;;;;18.27;100.00;99786.66;5069379;28;20204;-75
2023/06/13 03:37:41;;;;;;;0.60;0.60;;;;;;;17.85;100.00;99787.50;5071467;28;20225;-74
2023/06/13 03:40:09;;;;;;;0.60;0.60;;;;;;;17.94;100.00;99789.97;5067252;28;20264;-75
2023/06/13 03:42:37;;;;;;;0.63;0.63;;;;;;;17.43;100.00;99759.44;5035431;28;20657;-75
2023/06/13 03:45:04;;;;;;;0.80;0.80;;;;;;;17.50;100.00;99789.91;5071137;28;20203;-76
2023/06/13 03:47:31;;;;;;;0.60;0.60;;;;;;;17.39;100.00;99776.09;5068397;28;20194;-75
2023/06/13 03:49:58;;;;;;;0.90;0.90;;;;;;;17.32;100.00;99780.59;5071030;28;20187;-75
2023/06/13 03:52:24;;;;;;;0.60;0.60;;;;;;;17.34;100.00;99781.41;5070763;28;20218;-75
2023/06/13 03:54:51;;;;;;;0.60;0.60;;;;;;;17.27;100.00;99787.66;5071458;28;20191;-75
2023/06/13 03:57:18;;;;;;;0.70;0.70;;;;;;;17.04;100.00;99779.31;5071033;28;20194;-75
2023/06/13 03:59:46;;;;;;;0.70;0.70;;;;;;;17.30;100.00;99780.59;5070976;28;20218;-75
2023/06/13 04:02:13;;;;;;;0.60;0.60;;;;;;;17.40;100.00;99776.09;5070849;28;20654;-76
2023/06/13 04:04:42;;;;;;;0.60;0.60;;;;;;;17.47;100.00;99796.06;5067933;28;20199;-74
2023/06/13 04:07:09;;;;;;;0.70;0.70;;;;;;;17.43;100.00;99806.63;5071629;28;20195;-76
2023/06/13 04:09:36;;;;;;;0.70;0.70;;;;;;;17.64;100.00;99804.53;5031245;28;20687;-75
2023/06/13 04:12:03;;;;;;;0.60;0.60;;;;;;;17.84;100.00;99804.13;5071489;28;20210;-74
2023/06/13 04:14:30;;;;;;;0.60;0.60;;;;;;;17.73;100.00;99798.22;5070407;28;20301;-75
2023/06/13 04:16:59;;;;;;;0.70;0.70;;;;;;;17.63;100.00;99796.66;5070924;28;20199;-75
2023/06/13 04:19:26;;;;;;;0.70;0.70;;;;;;;17.53;100.00;99800.31;5071071;28;20226;-77
2023/06/13 04:21:53;;;;;;;0.80;0.80;;;;;;;17.61;100.00;99806.34;5044984;28;20192;-84
2023/06/13 04:24:21;;;;;;;0.70;0.70;;;;;;;17.67;100.00;99803.59;5069305;28;20194;-75
2023/06/13 04:26:48;;;;;;;0.80;0.80;;;;;;;17.21;100.00;99710.03;5070933;28;20195;-75
2023/06/13 04:29:17;;;;;;;0.70;0.70;;;;;;;18.00;100.00;99805.59;5071186;28;20206;-75
2023/06/13 04:31:44;;;;;;;0.70;0.70;;;;;;;17.93;100.00;99803.97;5070878;28;20222;-75
2023/06/13 04:34:13;;;;;;;0.70;0.70;;;;;;;18.34;100.00;99796.13;5070955;28;20210;-75
2023/06/13 04:36:41;;;;;;;0.70;0.70;;;;;;;18.42;100.00;99750.47;5069419;28;20685;-75
2023/06/13 04:39:08;;;;;;;0.60;0.60;;;;;;;18.39;100.00;99809.16;5070934;28;20223;-75
2023/06/13 04:41:35;;;;;;;0.75;0.75;;;;;;;18.45;100.00;99784.53;5072458;28;20284;-75
2023/06/13 04:44:05;;;;;;;0.60;0.60;;;;;;;18.27;100.00;99802.41;5065984;28;20207;-76
2023/06/13 04:46:32;;;;;;;0.80;0.80;;;;;;;18.70;100.00;99806.75;5072374;28;20293;-75
2023/06/13 04:49:00;;;;;;;0.50;0.50;;;;;;;19.25;100.00;99808.97;5074603;28;20287;-76
2023/06/13 04:51:28;;;;;;;0.80;0.80;;;;;;;20.11;100.00;99822.50;5074081;28;20205;-75
2023/06/13 04:53:57;;;;;;;0.70;0.70;;;;;;;20.51;100.00;99810.88;5073752;28;20284;-76
2023/06/13 04:56:24;;;;;;;0.70;0.70;;;;;;;20.94;99.03;99824.44;5074019;28;20289;-76
2023/06/13 04:58:52;;;;;;;0.70;0.70;;;;;;;20.22;100.00;99835.38;5073712;28;20292;-75
2023/06/13 05:01:19;;;;;;;0.70;0.70;;;;;;;19.69;100.00;99756.09;5073964;28;20211;-75
2023/06/13 05:03:47;;;;;;;0.60;0.60;;;;;;;20.46;99.27;99826.78;5073791;28;20672;-75
2023/06/13 05:06:14;;;;;;;0.70;0.70;;;;;;;20.39;100.00;99834.91;5072404;28;20327;-74
2023/06/13 05:08:42;;;;;;;0.63;0.63;;;;;;;20.99;96.00;99819.88;5073367;28;20238;-76
2023/06/13 05:11:09;;;;;;;0.70;0.70;;;;;;;21.10;96.71;99828.34;5073970;28;20203;-75
2023/06/13 05:13:36;;;;;;;0.70;0.70;;;;;;;21.26;95.72;99828.72;5074090;28;20234;-75
2023/06/13 05:16:02;;;;;;;0.70;0.70;;;;;;;21.27;94.55;99831.31;5073618;28;20194;-76
2023/06/13 05:18:31;;;;;;;0.80;0.80;;;;;;;21.11;93.55;99829.22;5065849;28;20280;-77
2023/06/13 05:20:58;;;;;;;0.60;0.60;;;;;;;20.76;99.12;99838.19;5074468;28;20199;-75
2023/06/13 05:23:29;;;;;;;0.60;0.60;;;;;;;21.08;97.52;99814.31;5073436;28;20256;-75
2023/06/13 05:25:57;;;;;;;0.80;0.80;;;;;;;21.26;94.82;99836.63;5073388;28;20194;-76
2023/06/13 05:28:24;;;;;;;0.70;0.70;;;;;;;21.78;90.83;99843.69;5073939;28;20229;-79
2023/06/13 05:30:52;;;;;;;1.02;1.02;;;;;;;22.59;87.86;99833.69;5074102;28;20238;-77
2023/06/13 05:33:18;;;;;;;0.77;0.77;;;;;;;22.67;84.07;99842.25;5031156;28;20295;-77
2023/06/13 05:35:45;;;;;;;0.60;0.60;;;;;;;23.00;82.15;99840.06;5067687;28;20544;-77
2023/06/13 05:38:12;;;;;;;0.70;0.70;;;;;;;22.34;87.41;99843.47;5073307;28;20286;-77
2023/06/13 05:40:39;;;;;;;0.60;0.60;;;;;;;22.17;85.92;99825.59;5073626;28;20222;-77
2023/06/13 05:43:08;;;;;;;0.80;0.80;;;;;;;22.61;83.85;99834.53;5034441;28;20207;-76
2023/06/13 05:45:34;;;;;;;0.75;0.75;;;;;;;23.02;83.07;99807.34;5062573;28;20671;-76
2023/06/13 05:48:01;;;;;;;0.60;0.60;;;;;;;23.03;81.82;99832.88;5072767;28;20689;-75
2023/06/13 05:50:28;;;;;;;0.60;0.60;;;;;;;22.81;82.29;99823.19;5073454;28;20203;-76
2023/06/13 05:52:55;;;;;;;0.70;0.70;;;;;;;23.36;80.04;99835.09;5073336;28;20199;-76
2023/06/13 05:55:21;;;;;;;0.70;0.70;;;;;;;22.74;82.00;99841.09;5073260;28;20213;-76
2023/06/13 05:57:49;;;;;;;1.23;0.93;;;;;;;22.85;82.43;99841.53;5073288;28;20692;-76
2023/06/13 06:00:18;;;;;;;0.70;0.70;;;;;;;23.21;82.42;99840.09;5073143;28;20233;-76
2023/06/13 06:02:46;;;;;;;0.80;0.80;;;;;;;23.21;80.57;99824.22;5073231;28;20636;-76
2023/06/13 06:05:14;;;;;;;0.70;0.70;;;;;;;23.52;79.81;99839.72;5073109;28;20202;-76
2023/06/13 06:07:42;;;;;;;0.60;0.60;;;;;;;23.65;76.53;99845.38;5073169;28;20223;-76
2023/06/13 06:10:10;;;;;;;0.80;0.80;;;;;;;24.08;75.59;99824.03;5072976;28;20206;-76
2023/06/13 06:12:37;;;;;;;0.77;0.77;;;;;;;24.25;74.05;99830.41;5037900;28;20638;-76
2023/06/13 06:15:05;;;;;;;0.70;0.70;;;;;;;22.99;78.53;99818.06;5072871;28;20678;-76
2023/06/13 06:17:33;;;;;;;1.35;0.98;;;;;;;23.48;80.28;99842.53;5072801;28;20191;-76
2023/06/13 06:20:00;;;;;;;0.73;0.73;;;;;;;23.29;79.40;99842.44;5072675;28;20720;-77
2023/06/13 06:22:27;;;;;;;0.70;0.70;;;;;;;22.58;82.89;99816.16;5072868;28;20222;-77
2023/06/13 06:24:53;;;;;;;0.70;0.70;;;;;;;22.91;82.44;99843.94;5073276;28;20202;-77
2023/06/13 06:27:20;;;;;;;0.60;0.60;;;;;;;23.38;80.02;99830.59;5072692;28;20207;-75
2023/06/13 06:29:47;;;;;;;0.60;0.60;;;;;;;23.88;76.88;99844.38;5072618;28;20316;-76
2023/06/13 06:32:14;;;;;;;0.68;0.68;;;;;;;23.48;78.19;99827.53;5072511;28;20585;-75
2023/06/13 06:34:42;;;;;;;0.80;0.80;;;;;;;22.48;85.37;99842.03;5072832;28;20206;-76
2023/06/13 06:37:09;;;;;;;0.70;0.70;;;;;;;21.64;91.83;99824.81;5072468;28;20328;-76
2023/06/13 06:39:36;;;;;;;0.80;0.80;;;;;;;22.29;91.11;99840.13;5072402;28;20230;-76
2023/06/13 06:42:02;;;;;;;0.68;0.68;;;;;;;22.90;86.44;99823.69;5071512;28;20195;-75
2023/06/13 06:44:29;;;;;;;0.60;0.60;;;;;;;22.84;86.12;99837.16;5071828;28;20202;-75
2023/06/13 06:46:56;;;;;;;0.70;0.70;;;;;;;23.29;83.48;99836.25;5071819;28;20683;-75
2023/06/13 06:49:23;;;;;;;0.70;0.70;;;;;;;22.38;86.22;99816.88;5072021;28;20210;-75
2023/06/13 06:51:51;;;;;;;0.50;0.50;;;;;;;22.85;87.13;99832.75;5020236;28;20210;-76
2023/06/13 06:54:18;;;;;;;0.60;0.60;;;;;;;22.54;88.18;99831.25;5052447;28;20587;-77
2023/06/13 06:56:45;;;;;;;0.82;0.82;;;;;;;23.16;85.92;99812.06;5052139;28;20212;-76
2023/06/13 06:59:11;;;;;;;0.80;0.80;;;;;;;23.31;81.48;99827.34;5051876;28;20230;-76
2023/06/13 07:01:38;;;;;;;0.80;0.80;;;;;;;23.13;82.78;99826.28;5051396;28;20199;-76
2023/06/13 07:04:05;;;;;;;0.70;0.70;;;;;;;23.27;83.57;99819.56;5051923;28;20196;-76
2023/06/13 07:06:32;;;;;;;0.75;0.75;;;;;;;23.51;83.13;99834.47;5051822;28;20195;-76
2023/06/13 07:09:00;;;;;;;0.70;0.70;;;;;;;23.71;81.01;99821.28;5052160;28;20199;-76
2023/06/13 07:11:27;;;;;;;0.70;0.70;;;;;;;24.26;76.54;99842.75;5051848;28;20200;-76
2023/06/13 07:13:54;;;;;;;0.70;0.70;;;;;;;24.04;78.90;99842.78;5052025;28;20241;-76
2023/06/13 07:16:21;;;;;;;0.90;0.90;;;;;;;23.49;79.78;99833.69;5016978;28;20198;-75
2023/06/13 07:18:47;;;;;;;0.60;0.60;;;;;;;23.42;81.96;99826.91;5051917;28;20257;-76
2023/06/13 07:21:14;;;;;;;0.90;0.90;;;;;;;24.16;78.91;99839.63;5051826;28;20195;-76
2023/06/13 07:23:41;;;;;;;0.60;0.60;;;;;;;24.81;75.05;99831.31;5051711;28;20598;-76
2023/06/13 07:26:09;;;;;;;0.70;0.70;;;;;;;24.70;73.50;99830.94;5051643;28;20215;-75
2023/06/13 07:28:36;;;;;;;0.60;0.60;;;;;;;24.76;75.48;99828.00;5051597;28;20203;-76
2023/06/13 07:31:03;;;;;;;0.70;0.70;;;;;;;24.84;73.62;99830.31;5051725;28;20235;-76
2023/06/13 07:33:30;;;;;;;0.70;0.70;;;;;;;24.42;74.69;99838.47;5016457;28;20192;-76
2023/06/13 07:35:57;;;;;;;0.80;0.80;;;;;;;24.02;77.55;99834.91;5016599;28;20227;-76
2023/06/13 07:38:24;;;;;;;0.70;0.70;;;;;;;24.39;77.29;99822.69;5051452;28;20257;-76
2023/06/13 07:40:51;;;;;;;0.60;0.60;;;;;;;24.48;78.70;99819.59;5051604;28;20231;-76
2023/06/13 07:43:19;;;;;;;0.70;0.70;;;;;;;24.27;76.88;99837.34;5033175;28;20207;-76
2023/06/13 07:45:46;;;;;;;0.70;0.70;;;;;;;24.15;76.51;99819.38;5051567;28;20199;-76
2023/06/13 07:48:13;;;;;;;0.70;0.70;;;;;;;23.92;79.64;99833.59;5051430;28;20294;-76
2023/06/13 07:50:41;;;;;;;0.70;0.70;;;;;;;24.52;75.82;99826.50;5051331;28;20205;-76
2023/06/13 07:53:09;;;;;;;0.60;0.60;;;;;;;24.38;76.68;99810.38;5051391;28;20594;-76
2023/06/13 07:55:36;;;;;;;0.70;0.70;;;;;;;24.38;76.49;99810.38;5051522;28;20261;-76
2023/06/13 07:58:03;;;;;;;0.70;0.70;;;;;;;24.62;78.33;99820.69;5051535;28;20291;-76
2023/06/13 08:00:31;;;;;;;0.80;0.80;;;;;;;24.90;73.57;99817.63;5051151;28;20230;-76
2023/06/13 08:02:58;;;;;;;0.70;0.70;;;;;;;24.66;75.06;99800.19;5051432;28;20203;-76
2023/06/13 08:05:26;;;;;;;0.88;0.88;;;;;;;24.93;72.58;99808.69;5051268;28;20753;-79
2023/06/13 08:07:53;;;;;;;0.60;0.60;;;;;;;25.47;70.87;99829.00;5051019;28;20259;-76
2023/06/13 08:10:20;;;;;;;0.60;0.60;;;;;;;26.30;70.44;99823.84;5054707;28;20206;-79
2023/06/13 08:12:47;;;;;;;0.60;0.60;;;;;;;25.72;72.15;99824.19;5060096;28;20204;-79
2023/06/13 08:15:14;;;;;;;0.60;0.60;;;;;;;25.43;71.61;99808.88;5056682;28;20203;-78
2023/06/13 08:17:42;;;;;;;0.77;0.77;;;;;;;25.92;71.56;99807.25;5056015;28;20209;-78
2023/06/13 08:20:10;;;;;;;0.60;0.60;;;;;;;26.37;68.57;99818.13;5058273;28;20315;-79
2023/06/13 08:22:38;;;;;;;0.60;0.60;;;;;;;26.20;69.37;99809.31;5057264;28;20199;-78
2023/06/13 08:25:07;;;;;;;0.80;0.80;;;;;;;25.84;69.63;99799.66;5058607;28;20203;-79
2023/06/13 08:27:35;;;;;;;0.70;0.70;;;;;;;25.23;69.30;99807.19;5056282;28;20206;-77
2023/06/13 08:30:01;;;;;;;0.70;0.70;;;;;;;25.26;69.66;99811.47;5056932;28;20237;-78
2023/06/13 08:32:28;;;;;;;0.60;0.60;;;;;;;25.20;71.86;99815.28;5056416;28;20592;-79
2023/06/13 08:34:56;;;;;;;0.65;0.65;;;;;;;25.76;71.14;99811.59;5055373;28;20577;-77
2023/06/13 08:37:23;;;;;;;0.60;0.60;;;;;;;25.63;70.16;99806.09;5054892;28;20206;-76
2023/06/13 08:39:50;;;;;;;0.63;0.63;;;;;;;25.32;74.78;99800.56;5055045;28;20223;-76
2023/06/13 08:42:17;;;;;;;0.80;0.80;;;;;;;25.79;71.24;99800.84;5019814;28;20195;-76
2023/06/13 08:44:44;;;;;;;0.70;0.70;;;;;;;25.44;73.53;99806.09;5055520;28;20259;-76
2023/06/13 08:47:12;;;;;;;0.73;0.73;;;;;;;25.39;71.65;99813.47;5057035;28;20669;-76
2023/06/13 08:49:39;;;;;;;0.70;0.70;;;;;;;25.86;70.57;99802.25;5062267;28;20210;-76
2023/06/13 08:52:11;;;;;;;0.70;0.70;;;;;;;25.92;70.54;99789.50;5028640;28;20725;-75
2023/06/13 08:54:39;;;;;;;0.60;0.60;;;;;;;26.57;68.44;99803.75;5071915;28;20191;-76
2023/06/13 08:57:07;;;;;;;0.70;0.70;;;;;;;26.70;68.37;99810.09;5074096;28;20237;-77
2023/06/13 08:59:37;;;;;;;0.65;0.65;;;;;;;26.48;67.20;99802.44;5055784;28;20313;-76
2023/06/13 09:02:05;;;;;;;0.80;0.80;;;;;;;26.17;70.55;99788.19;5074065;28;20574;-76
2023/06/13 09:04:35;;;;;;;0.70;0.70;;;;;;;26.34;69.19;99788.16;5074202;28;20207;-77
2023/06/13 09:07:02;;;;;;;0.70;0.70;;;;;;;26.45;67.47;99791.13;5074188;28;20209;-76
2023/06/13 09:09:32;;;;;;;0.60;0.60;;;;;;;26.50;66.30;99799.72;5060311;28;20218;-77
2023/06/13 09:12:00;;;;;;;0.73;0.73;;;;;;;26.04;68.66;99782.69;5073905;28;20203;-76
2023/06/13 09:14:27;;;;;;;0.70;0.70;;;;;;;26.54;67.85;99790.63;5073729;28;20218;-77
2023/06/13 09:16:55;;;;;;;0.60;0.60;;;;;;;26.77;66.12;99782.22;5073687;28;20199;-77
2023/06/13 09:19:22;;;;;;;0.60;0.60;;;;;;;26.82;65.72;99788.19;5073494;28;20635;-75
2023/06/13 09:21:49;;;;;;;0.77;0.77;;;;;;;26.04;68.84;99778.22;5073926;28;20210;-74
2023/06/13 09:24:16;;;;;;;0.70;0.70;;;;;;;25.81;71.09;99789.19;5072398;28;20202;-75
2023/06/13 09:26:45;;;;;;;0.85;0.85;;;;;;;26.23;69.76;99782.56;5073587;28;20660;-74
2023/06/13 09:29:12;;;;;;;0.70;0.70;;;;;;;26.38;68.34;99784.41;5073528;28;20211;-74
2023/06/13 09:31:39;;;;;;;1.00;1.00;;;;;;;25.94;69.74;99763.69;5054931;28;20210;-75
2023/06/13 09:34:07;;;;;;;0.70;0.70;;;;;;;25.79;70.26;99785.75;5073528;28;20588;-75
2023/06/13 09:36:35;;;;;;;0.80;0.80;;;;;;;26.03;69.18;99779.16;5073416;28;20199;-74
2023/06/13 09:39:02;;;;;;;3.33;1.67;;;;;;;26.60;65.49;99775.19;5073422;28;20207;-74
2023/06/13 09:41:31;;;;;;;1.00;1.00;;;;;;;26.71;66.72;99774.59;5073273;28;20658;-74
2023/06/13 09:44:03;;;;;;;0.80;0.80;;;;;;;26.60;66.71;99756.56;5073269;28;20692;-74
2023/06/13 09:46:30;;;;;;;0.80;0.80;;;;;;;26.52;65.08;99769.41;5073279;28;20287;-73
2023/06/13 09:48:57;;;;;;;0.68;0.68;;;;;;;26.43;66.55;99774.41;5073460;28;20194;-73
2023/06/13 09:51:23;;;;;;;0.70;0.70;;;;;;;26.68;64.45;99774.75;5073332;28;20194;-74
2023/06/13 09:53:51;;;;;;;0.70;0.70;;;;;;;26.61;64.65;99771.56;5073249;28;20642;-73
2023/06/13 09:56:18;;;;;;;0.80;0.80;;;;;;;27.10;62.19;99775.00;5073330;28;20203;-74
2023/06/13 09:58:44;;;;;;;0.70;0.70;;;;;;;27.36;60.50;99764.66;5073189;28;20194;-73
2023/06/13 10:01:15;;;;;;;0.75;0.75;;;;;;;27.45;60.89;99772.13;5073452;28;20670;-74
2023/06/13 10:03:42;;;;;;;0.70;0.70;;;;;;;27.26;61.60;99779.44;5073328;28;20203;-74
2023/06/13 10:06:09;;;;;;;0.70;0.70;;;;;;;27.67;59.31;99753.91;5073053;28;20230;-74
2023/06/13 10:08:35;;;;;;;0.80;0.80;;;;;;;27.39;61.30;99761.81;5073108;28;20230;-74
2023/06/13 10:11:08;;;;;;;0.70;0.70;;;;;;;27.72;61.12;99778.44;5072986;28;20213;-74
2023/06/13 10:13:40;;;;;;;0.63;0.63;;;;;;;27.98;60.23;99777.75;5073123;28;20383;-74
2023/06/13 10:16:09;;;;;;;0.70;0.70;;;;;;;28.53;56.63;99769.00;5072995;28;20278;-73
2023/06/13 10:18:41;;;;;;;0.80;0.80;;;;;;;29.17;55.45;99773.72;5073067;28;20199;-73
2023/06/13 10:21:11;;;;;;;0.70;0.70;;;;;;;29.61;53.90;99773.41;5072627;28;20593;-73
2023/06/13 10:23:44;;;;;;;0.75;0.75;;;;;;;28.97;55.19;99771.47;5072777;28;20207;-73
2023/06/13 10:26:17;;;;;;;0.70;0.70;;;;;;;29.39;54.61;99765.16;5072702;28;20654;-73
2023/06/13 10:29:02;;;;;;;0.73;0.73;;;;;;;28.51;55.24;99757.56;5072631;28;20252;-74
2023/06/13 10:31:39;;;;;;;0.77;0.77;;;;;;;28.51;56.05;99762.88;5072636;28;20721;-73
2023/06/13 10:34:25;;;;;;;0.70;0.70;;;;;;;28.24;57.12;99762.84;5072352;28;20256;-75
2023/06/13 10:37:13;;;;;;;0.70;0.70;;;;;;;28.40;55.97;99765.38;5072463;28;20290;-74
2023/06/13 10:39:56;;;;;;;0.60;0.60;;;;;;;27.55;57.62;99766.16;5072342;28;20203;-73
2023/06/13 10:42:31;;;;;;;0.70;0.70;;;;;;;27.84;57.86;99763.53;5072299;28;20198;-74
2023/06/13 10:45:02;;;;;;;0.68;0.68;;;;;;;27.58;57.76;99760.63;5054319;28;20225;-73
2023/06/13 10:47:30;;;;;;;1.10;0.80;;;;;;;27.75;58.84;99756.97;5072430;28;20246;-74
2023/06/13 10:50:00;;;;;;;0.70;0.70;;;;;;;28.61;56.42;99737.31;5072089;28;20294;-74
2023/06/13 10:52:30;;;;;;;0.60;0.60;;;;;;;28.81;54.35;99746.75;5072257;28;20275;-74
2023/06/13 10:54:59;;;;;;;0.75;0.75;;;;;;;29.00;53.22;99755.28;5072094;28;20738;-74
2023/06/13 10:57:49;;;;;;;0.60;0.60;;;;;;;29.28;52.43;99747.19;5037219;28;20202;-74
2023/06/13 11:00:28;;;;;;;0.70;0.70;;;;;;;29.41;52.54;99740.03;5072098;28;20222;-74
2023/06/13 11:02:59;;;;;;;0.70;0.70;;;;;;;28.75;55.06;99718.66;5072143;28;20198;-74
2023/06/13 11:05:29;;;;;;;0.65;0.65;;;;;;;29.02;52.16;99743.53;5071805;28;20195;-73
2023/06/13 11:07:56;;;;;;;0.60;0.60;;;;;;;29.21;52.25;99736.97;5072040;28;20271;-73
2023/06/13 11:10:23;;;;;;;0.70;0.70;;;;;;;29.28;52.16;99744.50;5071869;28;20305;-73
2023/06/13 11:12:53;;;;;;;0.70;0.70;;;;;;;28.43;53.02;99738.53;5071853;28;20195;-73
2023/06/13 11:15:22;;;;;;;0.77;0.77;;;;;;;28.25;53.60;99742.38;5071866;28;20290;-74
2023/06/13 11:18:26;;;;;;;0.60;0.60;;;;;;;28.50;53.31;99739.84;5071789;28;20230;-73
2023/06/13 11:20:55;;;;;;;0.60;0.60;;;;;;;28.68;53.86;99738.69;5071680;28;20276;-73
2023/06/13 11:23:24;;;;;;;0.70;0.70;;;;;;;28.77;53.87;99743.44;5071705;28;20669;-74
2023/06/13 11:25:51;;;;;;;0.50;0.50;;;;;;;28.47;53.76;99740.03;5071608;28;20202;-74
2023/06/13 11:28:19;;;;;;;0.70;0.70;;;;;;;28.38;54.13;99721.94;5071632;28;20375;-73
2023/06/13 11:30:47;;;;;;;0.90;0.90;;;;;;;28.50;52.42;99718.50;5071618;28;20262;-73
2023/06/13 11:33:14;;;;;;;0.65;0.65;;;;;;;28.91;51.68;99735.38;5071714;28;20256;-74
2023/06/13 11:35:50;;;;;;;0.70;0.70;;;;;;;29.78;49.76;99725.00;5071629;28;20194;-73